sensor_id;sensor_type;location;lat;lon;timestamp;temperature;humidity
8715;DHT22;4394;51.208;8.904;2023-05-17T00:01:28;8.40;99.90
8715;DHT22;4394;51.208;8.904;2023-05-17T00:04:20;8.10;99.90
8715;DHT22;4394;51.208;8.904;2023-05-17T00:07:08;8.10;99.90
8715;DHT22;4394;51.208;8.904;2023-05-17T00:09:57;8.10;99.90
8715;DHT22;4394;51.208;8.904;2023-05-17T00:12:45;8.10;99.90
8715;DHT22;4394;51.208;8.904;2023-05-17T00:15:33;8.10;99.90
8715;DHT22;4394;51.208;8.904;2023-05-17T00:18:22;8.10;99.90
8715;DHT22;4394;51.208;8.904;2023-05-17T00:21:12;8.10;99.90
8715;DHT22;4394;51.208;8.904;2023-05-17T00:24:00;8.10;99.90
8715;DHT22;4394;51.208;8.904;2023-05-17T00:26:48;8.10;99.90
8715;DHT22;4394;51.208;8.904;2023-05-17T00:29:37;8.10;99.90
8715;DHT22;4394;51.208;8.904;2023-05-17T00:32:25;8.10;99.90
8715;DHT22;4394;51.208;8.904;2023-05-17T00:35:13;8.10;99.90
8715;DHT22;4394;51.208;8.904;2023-05-17T00:38:03;8.20;99.90
8715;DHT22;4394;51.208;8.904;2023-05-17T00:40:51;8.30;99.90
8715;DHT22;4394;51.208;8.904;2023-05-17T00:43:40;8.20;99.90
8715;DHT22;4394;51.208;8.904;2023-05-17T00:46:28;8.20;99.90
8715;DHT22;4394;51.208;8.904;2023-05-17T00:49:16;8.20;99.90
8715;DHT22;4394;51.208;8.904;2023-05-17T00:52:05;8.10;99.90
8715;DHT22;4394;51.208;8.904;2023-05-17T00:54:55;8.20;99.90
8715;DHT22;4394;51.208;8.904;2023-05-17T00:57:43;8.20;99.90
8715;DHT22;4394;51.208;8.904;2023-05-17T01:00:32;8.30;99.90
8715;DHT22;4394;51.208;8.904;2023-05-17T01:03:20;8.30;99.90
8715;DHT22;4394;51.208;8.904;2023-05-17T01:06:09;8.30;99.90
8715;DHT22;4394;51.208;8.904;2023-05-17T01:08:57;8.40;99.90
8715;DHT22;4394;51.208;8.904;2023-05-17T01:11:53;8.40;99.90
8715;DHT22;4394;51.208;8.904;2023-05-17T01:14:52;8.40;99.90
8715;DHT22;4394;51.208;8.904;2023-05-17T01:17:49;8.50;99.90
8715;DHT22;4394;51.208;8.904;2023-05-17T01:20:42;8.50;99.90
8715;DHT22;4394;51.208;8.904;2023-05-17T01:23:41;8.50;99.90
8715;DHT22;4394;51.208;8.904;2023-05-17T01:26:39;8.50;99.90
8715;DHT22;4394;51.208;8.904;2023-05-17T01:29:31;8.50;99.90
8715;DHT22;4394;51.208;8.904;2023-05-17T01:32:21;8.50;99.90
8715;DHT22;4394;51.208;8.904;2023-05-17T01:35:10;8.50;99.90
8715;DHT22;4394;51.208;8.904;2023-05-17T01:37:59;8.50;99.90
8715;DHT22;4394;51.208;8.904;2023-05-17T01:40:53;8.50;99.90
8715;DHT22;4394;51.208;8.904;2023-05-17T01:43:47;8.50;99.90
8715;DHT22;4394;51.208;8.904;2023-05-17T01:46:38;8.60;99.90
8715;DHT22;4394;51.208;8.904;2023-05-17T01:49:29;8.60;99.90
8715;DHT22;4394;51.208;8.904;2023-05-17T01:52:23;8.60;99.90
8715;DHT22;4394;51.208;8.904;2023-05-17T01:55:19;8.60;99.90
8715;DHT22;4394;51.208;8.904;2023-05-17T01:58:11;8.60;99.90
8715;DHT22;4394;51.208;8.904;2023-05-17T02:01:01;8.60;99.90
8715;DHT22;4394;51.208;8.904;2023-05-17T02:03:51;8.60;99.90
8715;DHT22;4394;51.208;8.904;2023-05-17T02:06:39;8.60;99.90
8715;DHT22;4394;51.208;8.904;2023-05-17T02:09:28;8.60;99.90
8715;DHT22;4394;51.208;8.904;2023-05-17T02:12:17;8.60;99.90
8715;DHT22;4394;51.208;8.904;2023-05-17T02:15:06;8.60;99.90
8715;DHT22;4394;51.208;8.904;2023-05-17T02:17:58;8.60;99.90
8715;DHT22;4394;51.208;8.904;2023-05-17T02:20:47;8.60;99.90
8715;DHT22;4394;51.208;8.904;2023-05-17T02:23:35;8.60;99.90
8715;DHT22;4394;51.208;8.904;2023-05-17T02:26:23;8.50;99.90
8715;DHT22;4394;51.208;8.904;2023-05-17T02:29:12;8.50;99.90
8715;DHT22;4394;51.208;8.904;2023-05-17T02:32:00;8.60;99.90
8715;DHT22;4394;51.208;8.904;2023-05-17T02:34:49;8.60;99.90
8715;DHT22;4394;51.208;8.904;2023-05-17T02:37:38;8.60;99.90
8715;DHT22;4394;51.208;8.904;2023-05-17T02:40:27;8.60;99.90
8715;DHT22;4394;51.208;8.904;2023-05-17T02:43:16;8.60;99.90
8715;DHT22;4394;51.208;8.904;2023-05-17T02:46:04;8.60;99.90
8715;DHT22;4394;51.208;8.904;2023-05-17T02:48:53;8.50;99.90
8715;DHT22;4394;51.208;8.904;2023-05-17T02:51:42;8.40;99.90
8715;DHT22;4394;51.208;8.904;2023-05-17T02:54:31;8.40;99.90
8715;DHT22;4394;51.208;8.904;2023-05-17T02:57:19;8.40;99.90
8715;DHT22;4394;51.208;8.904;2023-05-17T03:00:08;8.40;99.90
8715;DHT22;4394;51.208;8.904;2023-05-17T03:02:57;8.30;99.90
8715;DHT22;4394;51.208;8.904;2023-05-17T03:05:45;8.30;99.90
8715;DHT22;4394;51.208;8.904;2023-05-17T03:08:36;8.30;99.90
8715;DHT22;4394;51.208;8.904;2023-05-17T03:11:24;8.30;99.90
8715;DHT22;4394;51.208;8.904;2023-05-17T03:14:12;8.30;99.90
8715;DHT22;4394;51.208;8.904;2023-05-17T03:17:00;8.20;99.90
8715;DHT22;4394;51.208;8.904;2023-05-17T03:19:49;8.30;99.90
8715;DHT22;4394;51.208;8.904;2023-05-17T03:22:38;8.30;99.90
8715;DHT22;4394;51.208;8.904;2023-05-17T03:25:28;8.30;99.90
8715;DHT22;4394;51.208;8.904;2023-05-17T03:28:16;8.30;99.90
8715;DHT22;4394;51.208;8.904;2023-05-17T03:31:05;8.30;99.90
8715;DHT22;4394;51.208;8.904;2023-05-17T03:33:53;8.40;99.90
8715;DHT22;4394;51.208;8.904;2023-05-17T03:36:42;8.30;99.90
8715;DHT22;4394;51.208;8.904;2023-05-17T03:39:30;8.30;99.90
8715;DHT22;4394;51.208;8.904;2023-05-17T03:42:19;8.30;99.90
8715;DHT22;4394;51.208;8.904;2023-05-17T03:45:08;8.50;99.90
8715;DHT22;4394;51.208;8.904;2023-05-17T03:47:56;8.40;99.90
8715;DHT22;4394;51.208;8.904;2023-05-17T03:50:45;8.40;99.90
8715;DHT22;4394;51.208;8.904;2023-05-17T03:53:34;8.40;99.90
8715;DHT22;4394;51.208;8.904;2023-05-17T03:56:27;8.50;99.90
8715;DHT22;4394;51.208;8.904;2023-05-17T03:59:17;8.50;99.90
8715;DHT22;4394;51.208;8.904;2023-05-17T04:02:05;8.50;99.90
8715;DHT22;4394;51.208;8.904;2023-05-17T04:04:54;8.60;99.90
8715;DHT22;4394;51.208;8.904;2023-05-17T04:07:43;8.50;99.90
8715;DHT22;4394;51.208;8.904;2023-05-17T04:10:31;8.60;99.90
8715;DHT22;4394;51.208;8.904;2023-05-17T04:13:19;8.50;99.90
8715;DHT22;4394;51.208;8.904;2023-05-17T04:16:09;8.50;99.90
8715;DHT22;4394;51.208;8.904;2023-05-17T04:18:58;8.50;99.90
8715;DHT22;4394;51.208;8.904;2023-05-17T04:21:48;8.50;99.90
8715;DHT22;4394;51.208;8.904;2023-05-17T04:24:39;8.60;99.90
8715;DHT22;4394;51.208;8.904;2023-05-17T04:27:28;8.60;99.90
8715;DHT22;4394;51.208;8.904;2023-05-17T04:30:16;8.60;99.90
8715;DHT22;4394;51.208;8.904;2023-05-17T04:33:08;8.60;99.90
8715;DHT22;4394;51.208;8.904;2023-05-17T04:35:59;8.60;99.90
8715;DHT22;4394;51.208;8.904;2023-05-17T04:38:48;8.60;99.90
8715;DHT22;4394;51.208;8.904;2023-05-17T04:41:37;8.60;99.90
8715;DHT22;4394;51.208;8.904;2023-05-17T04:44:26;8.60;99.90
8715;DHT22;4394;51.208;8.904;2023-05-17T04:47:14;8.70;99.90
8715;DHT22;4394;51.208;8.904;2023-05-17T04:50:05;8.70;99.90
8715;DHT22;4394;51.208;8.904;2023-05-17T04:52:54;8.70;99.90
8715;DHT22;4394;51.208;8.904;2023-05-17T04:55:42;8.80;99.90
8715;DHT22;4394;51.208;8.904;2023-05-17T04:58:31;8.80;99.90
8715;DHT22;4394;51.208;8.904;2023-05-17T05:01:20;9.00;99.90
8715;DHT22;4394;51.208;8.904;2023-05-17T05:04:09;9.00;99.90
8715;DHT22;4394;51.208;8.904;2023-05-17T05:06:59;9.00;99.90
8715;DHT22;4394;51.208;8.904;2023-05-17T05:09:48;9.00;99.90
8715;DHT22;4394;51.208;8.904;2023-05-17T05:12:37;9.00;99.90
8715;DHT22;4394;51.208;8.904;2023-05-17T05:15:26;9.00;99.90
8715;DHT22;4394;51.208;8.904;2023-05-17T05:18:15;9.20;99.90
8715;DHT22;4394;51.208;8.904;2023-05-17T05:21:03;9.10;99.90
8715;DHT22;4394;51.208;8.904;2023-05-17T05:23:53;9.10;99.90
8715;DHT22;4394;51.208;8.904;2023-05-17T05:26:41;9.10;99.90
8715;DHT22;4394;51.208;8.904;2023-05-17T05:29:30;9.20;99.90
8715;DHT22;4394;51.208;8.904;2023-05-17T05:32:19;9.20;99.90
8715;DHT22;4394;51.208;8.904;2023-05-17T05:35:08;9.30;99.90
8715;DHT22;4394;51.208;8.904;2023-05-17T05:37:57;9.30;99.90
8715;DHT22;4394;51.208;8.904;2023-05-17T05:40:47;9.30;99.90
8715;DHT22;4394;51.208;8.904;2023-05-17T05:43:35;9.30;99.90
8715;DHT22;4394;51.208;8.904;2023-05-17T05:46:25;9.20;99.90
8715;DHT22;4394;51.208;8.904;2023-05-17T05:49:13;9.30;99.90
8715;DHT22;4394;51.208;8.904;2023-05-17T05:52:02;9.30;99.90
8715;DHT22;4394;51.208;8.904;2023-05-17T05:54:50;9.20;99.90
8715;DHT22;4394;51.208;8.904;2023-05-17T05:57:40;9.30;99.90
8715;DHT22;4394;51.208;8.904;2023-05-17T06:00:28;9.30;99.90
8715;DHT22;4394;51.208;8.904;2023-05-17T06:03:17;9.40;99.90
8715;DHT22;4394;51.208;8.904;2023-05-17T06:06:05;9.30;99.90
8715;DHT22;4394;51.208;8.904;2023-05-17T06:08:54;9.40;99.90
8715;DHT22;4394;51.208;8.904;2023-05-17T06:11:45;9.40;99.90
8715;DHT22;4394;51.208;8.904;2023-05-17T06:14:35;9.30;99.90
8715;DHT22;4394;51.208;8.904;2023-05-17T06:17:24;9.30;99.90
8715;DHT22;4394;51.208;8.904;2023-05-17T06:20:13;9.20;99.90
8715;DHT22;4394;51.208;8.904;2023-05-17T06:23:02;9.20;99.90
8715;DHT22;4394;51.208;8.904;2023-05-17T06:25:51;9.30;99.90
8715;DHT22;4394;51.208;8.904;2023-05-17T06:28:39;9.30;99.90
8715;DHT22;4394;51.208;8.904;2023-05-17T06:31:29;9.20;99.90
8715;DHT22;4394;51.208;8.904;2023-05-17T06:34:17;9.20;99.90
8715;DHT22;4394;51.208;8.904;2023-05-17T06:37:21;9.10;99.90
8715;DHT22;4394;51.208;8.904;2023-05-17T06:40:33;9.10;99.90
8715;DHT22;4394;51.208;8.904;2023-05-17T06:43:22;9.10;99.90
8715;DHT22;4394;51.208;8.904;2023-05-17T06:46:10;9.20;99.90
8715;DHT22;4394;51.208;8.904;2023-05-17T06:49:00;9.20;99.90
8715;DHT22;4394;51.208;8.904;2023-05-17T06:51:49;9.10;99.90
8715;DHT22;4394;51.208;8.904;2023-05-17T06:54:37;9.10;99.90
8715;DHT22;4394;51.208;8.904;2023-05-17T06:57:25;9.20;99.90
8715;DHT22;4394;51.208;8.904;2023-05-17T07:00:14;9.30;99.90
8715;DHT22;4394;51.208;8.904;2023-05-17T07:03:03;9.40;99.90
8715;DHT22;4394;51.208;8.904;2023-05-17T07:05:53;9.40;99.90
8715;DHT22;4394;51.208;8.904;2023-05-17T07:08:42;9.50;99.90
8715;DHT22;4394;51.208;8.904;2023-05-17T07:11:30;9.50;99.90
8715;DHT22;4394;51.208;8.904;2023-05-17T07:14:19;9.50;99.90
8715;DHT22;4394;51.208;8.904;2023-05-17T07:17:07;9.40;99.90
8715;DHT22;4394;51.208;8.904;2023-05-17T07:19:55;9.50;99.90
8715;DHT22;4394;51.208;8.904;2023-05-17T07:22:45;9.60;99.90
8715;DHT22;4394;51.208;8.904;2023-05-17T07:25:34;9.60;99.90
8715;DHT22;4394;51.208;8.904;2023-05-17T07:28:24;9.60;99.90
8715;DHT22;4394;51.208;8.904;2023-05-17T07:31:15;9.60;99.90
8715;DHT22;4394;51.208;8.904;2023-05-17T07:34:03;9.60;99.90
8715;DHT22;4394;51.208;8.904;2023-05-17T07:36:52;9.80;99.90
8715;DHT22;4394;51.208;8.904;2023-05-17T07:39:41;9.70;99.90
8715;DHT22;4394;51.208;8.904;2023-05-17T07:42:30;9.70;99.90
8715;DHT22;4394;51.208;8.904;2023-05-17T07:45:18;9.70;99.90
8715;DHT22;4394;51.208;8.904;2023-05-17T07:48:06;10.20;99.90
8715;DHT22;4394;51.208;8.904;2023-05-17T07:50:55;10.10;99.90
8715;DHT22;4394;51.208;8.904;2023-05-17T07:53:43;10.00;99.90
8715;DHT22;4394;51.208;8.904;2023-05-17T07:56:33;10.10;99.90
8715;DHT22;4394;51.208;8.904;2023-05-17T07:59:22;10.00;99.90
8715;DHT22;4394;51.208;8.904;2023-05-17T08:02:10;10.00;99.90
8715;DHT22;4394;51.208;8.904;2023-05-17T08:04:59;10.50;99.90
8715;DHT22;4394;51.208;8.904;2023-05-17T08:07:47;10.40;99.90
8715;DHT22;4394;51.208;8.904;2023-05-17T08:10:36;10.40;99.90
8715;DHT22;4394;51.208;8.904;2023-05-17T08:13:26;10.40;99.90
8715;DHT22;4394;51.208;8.904;2023-05-17T08:16:15;10.40;99.90
8715;DHT22;4394;51.208;8.904;2023-05-17T08:19:03;10.50;99.90
8715;DHT22;4394;51.208;8.904;2023-05-17T08:21:52;10.50;99.90
8715;DHT22;4394;51.208;8.904;2023-05-17T08:24:40;10.50;99.90
8715;DHT22;4394;51.208;8.904;2023-05-17T08:27:30;10.60;99.90
8715;DHT22;4394;51.208;8.904;2023-05-17T08:30:21;10.60;99.90
8715;DHT22;4394;51.208;8.904;2023-05-17T08:33:15;10.70;99.90
8715;DHT22;4394;51.208;8.904;2023-05-17T08:36:04;10.60;99.90
8715;DHT22;4394;51.208;8.904;2023-05-17T08:38:54;10.60;99.90
8715;DHT22;4394;51.208;8.904;2023-05-17T08:41:42;10.70;99.90
8715;DHT22;4394;51.208;8.904;2023-05-17T08:44:30;10.80;99.90
8715;DHT22;4394;51.208;8.904;2023-05-17T08:47:20;10.90;99.90
8715;DHT22;4394;51.208;8.904;2023-05-17T08:50:15;11.00;99.90
8715;DHT22;4394;51.208;8.904;2023-05-17T08:53:04;11.00;99.90
8715;DHT22;4394;51.208;8.904;2023-05-17T08:55:56;10.90;99.90
8715;DHT22;4394;51.208;8.904;2023-05-17T08:58:47;10.90;99.90
8715;DHT22;4394;51.208;8.904;2023-05-17T09:01:45;10.80;99.90
8715;DHT22;4394;51.208;8.904;2023-05-17T09:04:37;10.90;99.90
8715;DHT22;4394;51.208;8.904;2023-05-17T09:07:26;11.10;99.90
8715;DHT22;4394;51.208;8.904;2023-05-17T09:10:14;11.30;99.90
8715;DHT22;4394;51.208;8.904;2023-05-17T09:13:03;11.60;99.90
8715;DHT22;4394;51.208;8.904;2023-05-17T09:15:53;11.70;99.90
8715;DHT22;4394;51.208;8.904;2023-05-17T09:18:41;11.70;99.90
8715;DHT22;4394;51.208;8.904;2023-05-17T09:21:31;11.50;99.90
8715;DHT22;4394;51.208;8.904;2023-05-17T09:24:26;11.50;99.90
8715;DHT22;4394;51.208;8.904;2023-05-17T09:27:17;11.30;99.90
8715;DHT22;4394;51.208;8.904;2023-05-17T09:30:09;11.30;99.90
8715;DHT22;4394;51.208;8.904;2023-05-17T09:33:04;11.20;99.90
8715;DHT22;4394;51.208;8.904;2023-05-17T09:35:53;11.10;99.90
8715;DHT22;4394;51.208;8.904;2023-05-17T09:38:50;11.00;99.90
8715;DHT22;4394;51.208;8.904;2023-05-17T09:41:42;11.00;99.90
8715;DHT22;4394;51.208;8.904;2023-05-17T09:44:45;11.10;99.90
8715;DHT22;4394;51.208;8.904;2023-05-17T09:47:34;11.40;99.90
8715;DHT22;4394;51.208;8.904;2023-05-17T09:50:24;11.50;99.90
8715;DHT22;4394;51.208;8.904;2023-05-17T09:53:25;11.70;99.90
8715;DHT22;4394;51.208;8.904;2023-05-17T09:56:15;11.80;99.90
8715;DHT22;4394;51.208;8.904;2023-05-17T09:59:10;11.90;99.90
8715;DHT22;4394;51.208;8.904;2023-05-17T10:02:00;12.10;99.90
8715;DHT22;4394;51.208;8.904;2023-05-17T10:04:49;12.10;99.90
8715;DHT22;4394;51.208;8.904;2023-05-17T10:07:39;12.20;99.90
8715;DHT22;4394;51.208;8.904;2023-05-17T10:10:29;12.40;99.90
8715;DHT22;4394;51.208;8.904;2023-05-17T10:13:23;12.40;99.90
8715;DHT22;4394;51.208;8.904;2023-05-17T10:16:12;12.50;99.90
8715;DHT22;4394;51.208;8.904;2023-05-17T10:19:01;12.60;99.90
8715;DHT22;4394;51.208;8.904;2023-05-17T10:21:51;12.90;99.90
8715;DHT22;4394;51.208;8.904;2023-05-17T10:24:42;12.90;99.90
8715;DHT22;4394;51.208;8.904;2023-05-17T10:27:30;12.70;99.90
8715;DHT22;4394;51.208;8.904;2023-05-17T10:30:21;12.50;99.90
8715;DHT22;4394;51.208;8.904;2023-05-17T10:33:12;12.50;99.90
8715;DHT22;4394;51.208;8.904;2023-05-17T10:36:02;12.50;99.90
8715;DHT22;4394;51.208;8.904;2023-05-17T10:38:52;12.50;99.90
8715;DHT22;4394;51.208;8.904;2023-05-17T10:41:42;12.40;99.90
8715;DHT22;4394;51.208;8.904;2023-05-17T10:44:32;12.30;99.90
8715;DHT22;4394;51.208;8.904;2023-05-17T10:47:30;12.30;99.90
8715;DHT22;4394;51.208;8.904;2023-05-17T10:50:23;12.40;99.90
8715;DHT22;4394;51.208;8.904;2023-05-17T10:53:12;12.50;99.90
8715;DHT22;4394;51.208;8.904;2023-05-17T10:56:00;12.60;99.90
8715;DHT22;4394;51.208;8.904;2023-05-17T10:59:15;12.70;99.90
8715;DHT22;4394;51.208;8.904;2023-05-17T11:02:04;12.80;99.90
8715;DHT22;4394;51.208;8.904;2023-05-17T11:04:55;12.90;99.90
8715;DHT22;4394;51.208;8.904;2023-05-17T11:07:44;12.90;99.90
8715;DHT22;4394;51.208;8.904;2023-05-17T11:10:35;13.10;99.90
8715;DHT22;4394;51.208;8.904;2023-05-17T11:13:25;13.30;99.90
8715;DHT22;4394;51.208;8.904;2023-05-17T11:16:15;13.40;99.90
8715;DHT22;4394;51.208;8.904;2023-05-17T11:19:08;13.40;99.90
8715;DHT22;4394;51.208;8.904;2023-05-17T11:22:09;13.30;99.90
8715;DHT22;4394;51.208;8.904;2023-05-17T11:24:58;13.20;99.90
8715;DHT22;4394;51.208;8.904;2023-05-17T11:27:50;13.30;99.90
8715;DHT22;4394;51.208;8.904;2023-05-17T11:30:40;13.40;99.90
8715;DHT22;4394;51.208;8.904;2023-05-17T11:33:38;13.30;99.90
8715;DHT22;4394;51.208;8.904;2023-05-17T11:36:29;13.60;99.50
8715;DHT22;4394;51.208;8.904;2023-05-17T11:39:21;13.30;99.90
8715;DHT22;4394;51.208;8.904;2023-05-17T11:42:23;13.20;99.90
8715;DHT22;4394;51.208;8.904;2023-05-17T11:45:12;13.40;99.90
8715;DHT22;4394;51.208;8.904;2023-05-17T11:48:01;13.40;99.90
8715;DHT22;4394;51.208;8.904;2023-05-17T11:50:52;13.80;99.90
8715;DHT22;4394;51.208;8.904;2023-05-17T11:53:42;13.90;99.90
8715;DHT22;4394;51.208;8.904;2023-05-17T11:56:34;14.10;99.90
8715;DHT22;4394;51.208;8.904;2023-05-17T11:59:35;14.10;99.90
8715;DHT22;4394;51.208;8.904;2023-05-17T12:02:27;14.20;99.90
8715;DHT22;4394;51.208;8.904;2023-05-17T12:05:18;14.20;99.90
8715;DHT22;4394;51.208;8.904;2023-05-17T12:08:07;14.20;99.90
8715;DHT22;4394;51.208;8.904;2023-05-17T12:10:56;14.10;99.60
8715;DHT22;4394;51.208;8.904;2023-05-17T12:13:47;13.90;99.70
8715;DHT22;4394;51.208;8.904;2023-05-17T12:16:40;13.80;99.90
8715;DHT22;4394;51.208;8.904;2023-05-17T12:19:40;13.70;99.10
8715;DHT22;4394;51.208;8.904;2023-05-17T12:22:29;13.70;99.30
8715;DHT22;4394;51.208;8.904;2023-05-17T12:25:19;13.80;99.90
8715;DHT22;4394;51.208;8.904;2023-05-17T12:28:13;13.90;99.70
8715;DHT22;4394;51.208;8.904;2023-05-17T12:31:03;14.00;98.80
8715;DHT22;4394;51.208;8.904;2023-05-17T12:33:53;14.20;99.50
8715;DHT22;4394;51.208;8.904;2023-05-17T12:36:48;14.40;99.20
8715;DHT22;4394;51.208;8.904;2023-05-17T12:39:37;14.60;99.20
8715;DHT22;4394;51.208;8.904;2023-05-17T12:42:26;14.60;98.90
8715;DHT22;4394;51.208;8.904;2023-05-17T12:45:15;14.50;97.80
8715;DHT22;4394;51.208;8.904;2023-05-17T12:48:04;14.40;98.80
8715;DHT22;4394;51.208;8.904;2023-05-17T12:50:53;14.50;98.40
8715;DHT22;4394;51.208;8.904;2023-05-17T12:53:47;14.60;99.40
8715;DHT22;4394;51.208;8.904;2023-05-17T12:56:39;14.70;97.70
8715;DHT22;4394;51.208;8.904;2023-05-17T12:59:28;14.70;97.40
8715;DHT22;4394;51.208;8.904;2023-05-17T13:02:22;14.70;97.10
8715;DHT22;4394;51.208;8.904;2023-05-17T13:05:15;14.60;97.90
8715;DHT22;4394;51.208;8.904;2023-05-17T13:08:20;14.60;98.20
8715;DHT22;4394;51.208;8.904;2023-05-17T13:11:11;14.70;98.10
8715;DHT22;4394;51.208;8.904;2023-05-17T13:14:00;14.80;99.80
8715;DHT22;4394;51.208;8.904;2023-05-17T13:16:50;15.10;99.90
8715;DHT22;4394;51.208;8.904;2023-05-17T13:19:39;15.40;96.70
8715;DHT22;4394;51.208;8.904;2023-05-17T13:22:27;15.20;96.30
8715;DHT22;4394;51.208;8.904;2023-05-17T13:25:16;15.00;96.60
8715;DHT22;4394;51.208;8.904;2023-05-17T13:28:08;14.90;98.20
8715;DHT22;4394;51.208;8.904;2023-05-17T13:30:57;14.90;97.10
8715;DHT22;4394;51.208;8.904;2023-05-17T13:33:47;14.80;97.90
8715;DHT22;4394;51.208;8.904;2023-05-17T13:36:36;14.90;99.20
8715;DHT22;4394;51.208;8.904;2023-05-17T13:39:25;15.10;98.30
8715;DHT22;4394;51.208;8.904;2023-05-17T13:42:13;15.10;97.40
8715;DHT22;4394;51.208;8.904;2023-05-17T13:45:04;15.00;97.60
8715;DHT22;4394;51.208;8.904;2023-05-17T13:47:55;14.90;98.20
8715;DHT22;4394;51.208;8.904;2023-05-17T13:50:43;14.80;96.90
8715;DHT22;4394;51.208;8.904;2023-05-17T13:53:32;14.80;97.90
8715;DHT22;4394;51.208;8.904;2023-05-17T13:56:20;15.00;98.80
8715;DHT22;4394;51.208;8.904;2023-05-17T13:59:09;15.00;97.30
8715;DHT22;4394;51.208;8.904;2023-05-17T14:01:59;15.00;97.60
8715;DHT22;4394;51.208;8.904;2023-05-17T14:04:48;14.90;97.50
8715;DHT22;4394;51.208;8.904;2023-05-17T14:07:36;14.90;96.90
8715;DHT22;4394;51.208;8.904;2023-05-17T14:10:27;14.80;96.40
8715;DHT22;4394;51.208;8.904;2023-05-17T14:13:16;14.80;96.80
8715;DHT22;4394;51.208;8.904;2023-05-17T14:16:05;14.90;97.90
8715;DHT22;4394;51.208;8.904;2023-05-17T14:18:55;15.10;97.00
8715;DHT22;4394;51.208;8.904;2023-05-17T14:21:44;15.30;96.80
8715;DHT22;4394;51.208;8.904;2023-05-17T14:24:33;15.40;97.00
8715;DHT22;4394;51.208;8.904;2023-05-17T14:27:22;15.30;95.70
8715;DHT22;4394;51.208;8.904;2023-05-17T14:30:12;15.10;94.60
8715;DHT22;4394;51.208;8.904;2023-05-17T14:33:01;15.10;94.70
8715;DHT22;4394;51.208;8.904;2023-05-17T14:35:51;15.30;95.10
8715;DHT22;4394;51.208;8.904;2023-05-17T14:38:40;15.50;95.20
8715;DHT22;4394;51.208;8.904;2023-05-17T14:41:28;15.70;95.00
8715;DHT22;4394;51.208;8.904;2023-05-17T14:44:17;15.40;92.50
8715;DHT22;4394;51.208;8.904;2023-05-17T14:47:06;15.30;94.60
8715;DHT22;4394;51.208;8.904;2023-05-17T14:49:55;15.30;94.30
8715;DHT22;4394;51.208;8.904;2023-05-17T14:52:45;15.20;93.90
8715;DHT22;4394;51.208;8.904;2023-05-17T14:55:33;15.10;94.50
8715;DHT22;4394;51.208;8.904;2023-05-17T14:58:22;15.00;94.90
8715;DHT22;4394;51.208;8.904;2023-05-17T15:01:10;15.20;95.80
8715;DHT22;4394;51.208;8.904;2023-05-17T15:03:59;15.40;94.50
8715;DHT22;4394;51.208;8.904;2023-05-17T15:06:48;15.50;95.20
8715;DHT22;4394;51.208;8.904;2023-05-17T15:09:42;15.60;93.70
8715;DHT22;4394;51.208;8.904;2023-05-17T15:12:31;15.60;93.10
8715;DHT22;4394;51.208;8.904;2023-05-17T15:15:19;15.60;92.70
8715;DHT22;4394;51.208;8.904;2023-05-17T15:18:08;15.70;94.50
8715;DHT22;4394;51.208;8.904;2023-05-17T15:20:57;15.80;93.60
8715;DHT22;4394;51.208;8.904;2023-05-17T15:23:46;15.90;92.30
8715;DHT22;4394;51.208;8.904;2023-05-17T15:26:37;15.80;92.60
8715;DHT22;4394;51.208;8.904;2023-05-17T15:29:26;15.70;92.20
8715;DHT22;4394;51.208;8.904;2023-05-17T15:32:14;15.90;93.00
8715;DHT22;4394;51.208;8.904;2023-05-17T15:35:04;16.20;94.00
8715;DHT22;4394;51.208;8.904;2023-05-17T15:37:52;16.20;93.10
8715;DHT22;4394;51.208;8.904;2023-05-17T15:40:40;16.30;92.50
8715;DHT22;4394;51.208;8.904;2023-05-17T15:43:32;16.30;92.10
8715;DHT22;4394;51.208;8.904;2023-05-17T15:46:21;16.00;90.90
8715;DHT22;4394;51.208;8.904;2023-05-17T15:49:10;15.70;91.40
8715;DHT22;4394;51.208;8.904;2023-05-17T15:51:59;15.70;92.70
8715;DHT22;4394;51.208;8.904;2023-05-17T15:54:57;15.90;93.00
8715;DHT22;4394;51.208;8.904;2023-05-17T15:58:10;16.00;91.10
8715;DHT22;4394;51.208;8.904;2023-05-17T16:01:03;16.20;91.30
8715;DHT22;4394;51.208;8.904;2023-05-17T16:03:52;16.30;91.90
8715;DHT22;4394;51.208;8.904;2023-05-17T16:06:40;16.20;90.00
8715;DHT22;4394;51.208;8.904;2023-05-17T16:09:28;15.80;90.30
8715;DHT22;4394;51.208;8.904;2023-05-17T16:12:17;15.90;91.60
8715;DHT22;4394;51.208;8.904;2023-05-17T16:15:07;16.10;91.90
8715;DHT22;4394;51.208;8.904;2023-05-17T16:17:58;16.40;92.20
8715;DHT22;4394;51.208;8.904;2023-05-17T16:20:56;16.40;90.60
8715;DHT22;4394;51.208;8.904;2023-05-17T16:23:44;16.40;90.60
8715;DHT22;4394;51.208;8.904;2023-05-17T16:26:34;16.40;90.40
8715;DHT22;4394;51.208;8.904;2023-05-17T16:29:24;16.40;90.10
8715;DHT22;4394;51.208;8.904;2023-05-17T16:32:12;16.40;88.40
8715;DHT22;4394;51.208;8.904;2023-05-17T16:35:03;16.40;88.20
8715;DHT22;4394;51.208;8.904;2023-05-17T16:37:51;16.20;85.30
8715;DHT22;4394;51.208;8.904;2023-05-17T16:40:39;16.00;86.80
8715;DHT22;4394;51.208;8.904;2023-05-17T16:43:28;16.00;84.70
8715;DHT22;4394;51.208;8.904;2023-05-17T16:46:17;16.10;86.80
8715;DHT22;4394;51.208;8.904;2023-05-17T16:49:07;16.30;87.50
8715;DHT22;4394;51.208;8.904;2023-05-17T16:51:57;16.50;85.60
8715;DHT22;4394;51.208;8.904;2023-05-17T16:54:45;16.60;85.50
8715;DHT22;4394;51.208;8.904;2023-05-17T16:57:34;16.70;85.40
8715;DHT22;4394;51.208;8.904;2023-05-17T17:00:22;16.80;84.80
8715;DHT22;4394;51.208;8.904;2023-05-17T17:03:10;16.60;84.20
8715;DHT22;4394;51.208;8.904;2023-05-17T17:05:59;16.30;85.30
8715;DHT22;4394;51.208;8.904;2023-05-17T17:08:48;16.10;86.20
8715;DHT22;4394;51.208;8.904;2023-05-17T17:11:37;16.00;88.40
8715;DHT22;4394;51.208;8.904;2023-05-17T17:14:25;15.80;89.40
8715;DHT22;4394;51.208;8.904;2023-05-17T17:17:13;15.80;90.30
8715;DHT22;4394;51.208;8.904;2023-05-17T17:20:02;15.80;89.30
8715;DHT22;4394;51.208;8.904;2023-05-17T17:22:51;15.60;87.70
8715;DHT22;4394;51.208;8.904;2023-05-17T17:25:41;15.60;89.30
8715;DHT22;4394;51.208;8.904;2023-05-17T17:28:29;15.80;90.10
8715;DHT22;4394;51.208;8.904;2023-05-17T17:31:17;15.90;90.30
8715;DHT22;4394;51.208;8.904;2023-05-17T17:34:05;16.00;88.20
8715;DHT22;4394;51.208;8.904;2023-05-17T17:36:54;16.10;89.70
8715;DHT22;4394;51.208;8.904;2023-05-17T17:39:42;16.20;90.10
8715;DHT22;4394;51.208;8.904;2023-05-17T17:42:32;16.40;90.70
8715;DHT22;4394;51.208;8.904;2023-05-17T17:45:20;16.50;88.20
8715;DHT22;4394;51.208;8.904;2023-05-17T17:48:08;16.50;89.30
8715;DHT22;4394;51.208;8.904;2023-05-17T17:50:57;16.50;89.10
8715;DHT22;4394;51.208;8.904;2023-05-17T17:53:45;16.70;88.80
8715;DHT22;4394;51.208;8.904;2023-05-17T17:56:35;17.30;85.00
8715;DHT22;4394;51.208;8.904;2023-05-17T17:59:25;17.20;86.30
8715;DHT22;4394;51.208;8.904;2023-05-17T18:02:13;17.00;87.30
8715;DHT22;4394;51.208;8.904;2023-05-17T18:05:02;16.90;86.60
8715;DHT22;4394;51.208;8.904;2023-05-17T18:07:50;16.60;86.30
8715;DHT22;4394;51.208;8.904;2023-05-17T18:10:39;16.20;87.30
8715;DHT22;4394;51.208;8.904;2023-05-17T18:13:27;16.00;86.70
8715;DHT22;4394;51.208;8.904;2023-05-17T18:16:16;16.30;89.70
8715;DHT22;4394;51.208;8.904;2023-05-17T18:19:05;17.20;87.00
8715;DHT22;4394;51.208;8.904;2023-05-17T18:21:53;17.90;87.50
8715;DHT22;4394;51.208;8.904;2023-05-17T18:24:42;18.60;83.30
8715;DHT22;4394;51.208;8.904;2023-05-17T18:27:31;19.10;79.80
8715;DHT22;4394;51.208;8.904;2023-05-17T18:30:21;18.70;77.50
8715;DHT22;4394;51.208;8.904;2023-05-17T18:33:12;17.90;79.00
8715;DHT22;4394;51.208;8.904;2023-05-17T18:36:01;17.20;80.20
8715;DHT22;4394;51.208;8.904;2023-05-17T18:38:57;16.70;82.90